createdAt,value
2022-11-19T00:01:27.426Z,93972.31
2022-11-19T00:03:55.409Z,93974.25
2022-11-19T00:06:25.014Z,93965.13
2022-11-19T00:08:52.658Z,93960.31
2022-11-19T00:11:41.949Z,93962.91
2022-11-19T00:14:12.298Z,93972.53
2022-11-19T00:16:40.036Z,93969.00
2022-11-19T00:19:07.663Z,93972.19
2022-11-19T00:21:35.313Z,93978.88
2022-11-19T00:24:02.967Z,93968.56
2022-11-19T00:26:30.622Z,93957.41
2022-11-19T00:28:58.241Z,93950.38
2022-11-19T00:31:27.208Z,93958.34
2022-11-19T00:33:55.360Z,93955.91
2022-11-19T00:36:23.576Z,93952.72
2022-11-19T00:38:51.312Z,93961.66
2022-11-19T00:41:19.167Z,93952.63
2022-11-19T00:43:50.445Z,93954.28
2022-11-19T00:46:19.402Z,93956.41
2022-11-19T00:48:49.151Z,93964.50
2022-11-19T00:51:17.967Z,93966.91
2022-11-19T00:53:45.658Z,93966.69
2022-11-19T00:56:16.081Z,93967.75
2022-11-19T00:58:44.059Z,93968.34
2022-11-19T01:01:12.707Z,93965.06
2022-11-19T01:03:41.295Z,93964.50
2022-11-19T01:06:12.360Z,93967.19
2022-11-19T01:08:43.137Z,93965.28
2022-11-19T01:11:13.111Z,93968.22
2022-11-19T01:13:41.328Z,93966.09
2022-11-19T01:16:10.520Z,93963.66
2022-11-19T01:18:39.047Z,93968.81
2022-11-19T01:21:08.244Z,93973.16
2022-11-19T01:23:37.406Z,93972.06
2022-11-19T01:26:05.270Z,93969.38
2022-11-19T01:28:33.096Z,93968.00
2022-11-19T01:31:01.261Z,93975.00
2022-11-19T01:33:29.009Z,93978.09
2022-11-19T01:35:58.252Z,93975.16
2022-11-19T01:38:26.553Z,93977.00
2022-11-19T01:40:55.988Z,93978.66
2022-11-19T01:43:41.938Z,93980.03
2022-11-19T01:46:10.074Z,93978.19
2022-11-19T01:48:39.703Z,93983.34
2022-11-19T01:51:11.021Z,93979.81
2022-11-19T01:53:38.821Z,93980.03
2022-11-19T01:56:09.300Z,93988.13
2022-11-19T01:58:39.340Z,93984.41
2022-11-19T02:01:08.003Z,93983.13
2022-11-19T02:03:35.775Z,93979.00
2022-11-19T02:06:03.854Z,93986.97
2022-11-19T02:08:40.497Z,93985.34
2022-11-19T02:11:25.967Z,93989.56
2022-11-19T02:14:00.717Z,93984.88
2022-11-19T02:16:33.865Z,93980.06
2022-11-19T02:19:06.293Z,93988.16
2022-11-19T02:21:39.223Z,93986.28
2022-11-19T02:24:48.566Z,93980.66
2022-11-19T02:27:54.145Z,93978.44
2022-11-19T02:30:23.226Z,93972.31
2022-11-19T02:32:58.769Z,93976.09
2022-11-19T02:35:37.652Z,93981.13
2022-11-19T02:38:10.387Z,93976.09
2022-11-19T02:40:39.833Z,93984.06
2022-11-19T02:43:12.328Z,93989.69
2022-11-19T02:45:44.751Z,93978.31
2022-11-19T02:48:15.252Z,93981.72
2022-11-19T02:50:45.150Z,93984.66
2022-11-19T02:53:12.850Z,93984.53
2022-11-19T02:55:41.042Z,93984.88
2022-11-19T02:58:32.426Z,93985.69
2022-11-19T03:01:19.434Z,93994.81
2022-11-19T03:04:04.694Z,93994.81
2022-11-19T03:06:34.570Z,93995.88
2022-11-19T03:09:02.483Z,93990.50
2022-11-19T03:11:31.608Z,93994.56
2022-11-19T03:14:19.236Z,93999.28
2022-11-19T03:16:53.660Z,94003.06
2022-11-19T03:19:26.602Z,93995.78
2022-11-19T03:21:57.925Z,94007.13
2022-11-19T03:24:30.074Z,94013.09
2022-11-19T03:26:59.005Z,94018.03
2022-11-19T03:29:27.926Z,94019.94
2022-11-19T03:32:00.075Z,94018.03
2022-11-19T03:34:27.601Z,94026.72
2022-11-19T03:36:57.671Z,94017.59
2022-11-19T03:39:26.045Z,94024.13
2022-11-19T03:41:55.196Z,94023.66
2022-11-19T03:44:26.511Z,94021.59
2022-11-19T03:46:58.839Z,94015.94
2022-11-19T03:49:31.598Z,94024.88
2022-11-19T03:52:04.383Z,94020.88
2022-11-19T03:54:32.057Z,94025.22
2022-11-19T03:57:00.695Z,94026.03
2022-11-19T03:59:30.159Z,94028.16
2022-11-19T04:02:03.462Z,94027.34
2022-11-19T04:04:37.697Z,94036.22
2022-11-19T04:07:11.145Z,94030.25
2022-11-19T04:09:39.786Z,94030.25
2022-11-19T04:12:08.931Z,94039.75
2022-11-19T04:14:36.577Z,94029.78
2022-11-19T04:17:05.689Z,94041.41
2022-11-19T04:19:33.316Z,94041.97
2022-11-19T04:22:00.955Z,94041.97
2022-11-19T04:24:28.599Z,94043.41
2022-11-19T04:26:56.309Z,94044.91
2022-11-19T04:29:23.994Z,94033.06
2022-11-19T04:31:51.669Z,94040.69
2022-11-19T04:34:20.824Z,94035.31
2022-11-19T04:36:48.468Z,94034.22
2022-11-19T04:39:16.209Z,94035.88
2022-11-19T04:41:43.888Z,94031.31
2022-11-19T04:44:11.589Z,94031.06
2022-11-19T04:46:39.230Z,94040.25
2022-11-19T04:49:07.033Z,94033.19
2022-11-19T04:51:36.023Z,94035.66
2022-11-19T04:54:03.755Z,94035.44
2022-11-19T04:56:31.500Z,94036.34
2022-11-19T04:58:59.200Z,94040.94
2022-11-19T05:01:26.925Z,94042.09
2022-11-19T05:03:54.742Z,94037.53
2022-11-19T05:06:22.489Z,94043.75
2022-11-19T05:08:51.513Z,94046.22
2022-11-19T05:11:19.456Z,94044.91
2022-11-19T05:13:47.067Z,94051.94
2022-11-19T05:16:14.781Z,94053.97
2022-11-19T05:18:42.464Z,94055.59
2022-11-19T05:21:10.361Z,94051.72
2022-11-19T05:23:38.007Z,94045.25
2022-11-19T05:26:07.176Z,94052.88
2022-11-19T05:28:38.936Z,94049.16
2022-11-19T05:31:07.364Z,94049.72
2022-11-19T05:33:35.057Z,94057.81
2022-11-19T05:36:02.834Z,94053.50
2022-11-19T05:38:30.523Z,94049.72
2022-11-19T05:40:58.154Z,94048.56
2022-11-19T05:43:27.190Z,94051.84
2022-11-19T05:45:54.843Z,94055.13
2022-11-19T05:48:22.577Z,94049.94
2022-11-19T05:50:50.201Z,94051.25
2022-11-19T05:53:17.882Z,94059.94
2022-11-19T05:55:45.569Z,94054.31
2022-11-19T05:58:13.774Z,94056.03
2022-11-19T06:00:42.806Z,94049.94
2022-11-19T06:03:10.828Z,94048.69
2022-11-19T06:05:40.598Z,94047.38
2022-11-19T06:08:08.640Z,94052.19
2022-11-19T06:10:36.246Z,94047.03
2022-11-19T06:13:03.917Z,94047.84
2022-11-19T06:15:31.581Z,94052.19
2022-11-19T06:18:00.540Z,94040.59
2022-11-19T06:20:28.211Z,94049.72
2022-11-19T06:22:55.856Z,94049.59
2022-11-19T06:25:23.948Z,94041.28
2022-11-19T06:27:51.619Z,94047.50
2022-11-19T06:30:19.543Z,94046.44
2022-11-19T06:32:47.307Z,94038.34
2022-11-19T06:35:16.559Z,94044.22
2022-11-19T06:37:44.182Z,94039.84
2022-11-19T06:40:13.273Z,94047.13
2022-11-19T06:42:41.082Z,94043.84
2022-11-19T06:45:10.940Z,94044.91
2022-11-19T06:47:39.484Z,94058.38
2022-11-19T06:50:07.961Z,94045.75
2022-11-19T06:52:37.294Z,94054.66
2022-11-19T06:55:05.231Z,94047.59
2022-11-19T06:57:33.090Z,94061.94
2022-11-19T07:00:00.747Z,94062.97
2022-11-19T07:02:28.527Z,94061.31
2022-11-19T07:04:56.340Z,94057.81
2022-11-19T07:07:24.107Z,94064.84
2022-11-19T07:09:53.228Z,94075.41
2022-11-19T07:12:20.938Z,94070.00
2022-11-19T07:14:48.594Z,94079.03
2022-11-19T07:17:16.204Z,94090.63
2022-11-19T07:19:43.970Z,94083.13
2022-11-19T07:22:11.849Z,94091.47
2022-11-19T07:24:39.532Z,94093.69
2022-11-19T07:27:08.558Z,94101.31
2022-11-19T07:29:36.361Z,94099.47
2022-11-19T07:32:04.587Z,94100.03
2022-11-19T07:34:32.259Z,94106.81
2022-11-19T07:36:59.897Z,94104.47
2022-11-19T07:39:27.547Z,94105.91
2022-11-19T07:42:12.492Z,94100.63
2022-11-19T07:44:41.575Z,94108.50
2022-11-19T07:47:09.591Z,94114.25
2022-11-19T07:49:37.236Z,94112.13
2022-11-19T07:52:05.244Z,94112.72
2022-11-19T07:54:33.014Z,94107.69
2022-11-19T07:57:00.751Z,94117.19
2022-11-19T07:59:28.578Z,94117.28
2022-11-19T08:01:57.618Z,94115.44
2022-11-19T08:04:25.351Z,94129.63
2022-11-19T08:06:53.019Z,94125.16
2022-11-19T08:09:21.201Z,94125.03
2022-11-19T08:11:49.226Z,94129.97
2022-11-19T08:14:16.994Z,94124.66
2022-11-19T08:17:02.217Z,94133.38
2022-11-19T08:19:31.302Z,94127.97
2022-11-19T08:21:59.118Z,94133.25
2022-11-19T08:24:26.818Z,94126.56
2022-11-19T08:26:54.536Z,94131.16
2022-11-19T08:29:23.823Z,94131.63
2022-11-19T08:31:52.174Z,94128.22
2022-11-19T08:34:20.051Z,94139.22
2022-11-19T08:36:49.196Z,94134.16
2022-11-19T08:39:17.123Z,94133.22
2022-11-19T08:42:02.362Z,94129.28
2022-11-19T08:44:30.027Z,94127.00
2022-11-19T08:46:57.748Z,94129.34
2022-11-19T08:49:25.328Z,94130.66
2022-11-19T08:51:54.711Z,94134.97
2022-11-19T08:54:22.851Z,94130.78
2022-11-19T08:56:50.692Z,94132.59
2022-11-19T08:59:18.854Z,94131.72
2022-11-19T09:01:46.762Z,94129.66
2022-11-19T09:04:14.574Z,94138.47
2022-11-19T09:06:42.208Z,94133.19
2022-11-19T09:09:11.575Z,94140.31
2022-11-19T09:11:42.641Z,94139.66
2022-11-19T09:14:11.148Z,94149.41
2022-11-19T09:16:38.845Z,94151.47
2022-11-19T09:19:06.475Z,94152.41
2022-11-19T09:21:34.168Z,94154.22
2022-11-19T09:24:01.796Z,94145.78
2022-11-19T09:26:30.856Z,94164.75
2022-11-19T09:28:58.495Z,94160.84
2022-11-19T09:31:26.201Z,94168.31
2022-11-19T09:33:55.015Z,94166.03
2022-11-19T09:36:22.688Z,94179.03
2022-11-19T09:38:50.359Z,94188.88
2022-11-19T09:41:36.236Z,94183.94
2022-11-19T09:44:11.656Z,94184.25
2022-11-19T09:46:46.873Z,94190.53
2022-11-19T09:49:20.552Z,94185.28
2022-11-19T09:51:54.222Z,94182.00
2022-11-19T09:54:22.960Z,94195.63
2022-11-19T09:56:57.947Z,94193.19
2022-11-19T09:59:31.232Z,94184.00
2022-11-19T10:01:58.979Z,94192.38
2022-11-19T10:04:28.516Z,94190.94
2022-11-19T10:07:03.448Z,94186.31
2022-11-19T10:09:41.660Z,94186.63
2022-11-19T10:12:23.083Z,94180.38
2022-11-19T10:15:01.221Z,94179.81
2022-11-19T10:17:35.495Z,94172.31
2022-11-19T10:20:24.328Z,94176.25
2022-11-19T10:22:57.491Z,94173.81
2022-11-19T10:25:28.572Z,94177.31
2022-11-19T10:28:02.623Z,94176.59
2022-11-19T10:30:31.496Z,94183.09
2022-11-19T10:33:01.805Z,94180.38
2022-11-19T10:35:32.436Z,94183.09
2022-11-19T10:38:02.675Z,94185.81
2022-11-19T10:40:34.516Z,94172.91
2022-11-19T10:43:19.455Z,94175.03
2022-11-19T10:45:50.923Z,94178.25
2022-11-19T10:48:21.829Z,94170.19
2022-11-19T10:50:50.036Z,94169.69
2022-11-19T10:53:21.253Z,94166.22
2022-11-19T10:55:54.517Z,94165.41
2022-11-19T10:58:25.826Z,94155.97
2022-11-19T11:00:55.769Z,94154.63
2022-11-19T11:03:27.810Z,94156.22
2022-11-19T11:05:58.279Z,94148.78
2022-11-19T11:08:26.229Z,94149.94
2022-11-19T11:10:54.325Z,94148.03
2022-11-19T11:13:48.346Z,94146.44
2022-11-19T11:16:19.283Z,94148.41
2022-11-19T11:18:47.732Z,94144.16
2022-11-19T11:21:34.356Z,94143.56
2022-11-19T11:24:04.705Z,94146.50
2022-11-19T11:26:34.685Z,94147.19
2022-11-19T11:29:05.874Z,94136.13
2022-11-19T11:31:39.494Z,94141.25
2022-11-19T11:34:08.447Z,94141.81
2022-11-19T11:36:37.790Z,94135.50
2022-11-19T11:39:07.249Z,94144.72
2022-11-19T11:44:30.287Z,94139.66
2022-11-19T11:47:00.599Z,94141.38
2022-11-19T11:49:31.045Z,94137.25
2022-11-19T11:52:21.011Z,94134.75
2022-11-19T11:54:59.832Z,94127.75
2022-11-19T11:57:30.630Z,94129.50
2022-11-19T12:00:00.741Z,94119.41
2022-11-19T12:02:31.408Z,94113.34
2022-11-19T12:05:02.106Z,94110.69
2022-11-19T12:07:45.492Z,94110.91
2022-11-19T12:10:25.091Z,94114.31
2022-11-19T12:13:04.887Z,94098.97
2022-11-19T12:15:41.879Z,94106.78
2022-11-19T12:18:15.265Z,94102.03
2022-11-19T12:20:46.758Z,94103.81
2022-11-19T12:23:27.053Z,94109.38
2022-11-19T12:26:04.468Z,94109.53
2022-11-19T12:28:43.285Z,94105.00
2022-11-19T12:31:28.666Z,94107.66
2022-11-19T12:34:24.997Z,94107.25
2022-11-19T12:36:58.608Z,94116.16
2022-11-19T12:39:37.303Z,94103.78
2022-11-19T12:42:21.417Z,94110.53
2022-11-19T12:44:55.618Z,94105.66
2022-11-19T12:47:42.156Z,94108.19
2022-11-19T12:50:19.661Z,94114.56
2022-11-19T12:53:11.075Z,94117.38
2022-11-19T12:55:45.121Z,94112.59
2022-11-19T12:58:19.869Z,94122.44
2022-11-19T13:00:52.246Z,94118.38
2022-11-19T13:03:25.803Z,94119.13
2022-11-19T13:05:56.670Z,94125.16
2022-11-19T13:08:30.020Z,94115.03
2022-11-19T13:11:02.908Z,94128.25
2022-11-19T13:13:31.592Z,94113.75
2022-11-19T13:16:01.456Z,94116.31
2022-11-19T13:18:32.420Z,94115.44
2022-11-19T13:21:04.780Z,94114.63
2022-11-19T13:23:35.210Z,94120.00
2022-11-19T13:26:04.804Z,94116.72
2022-11-19T13:28:37.371Z,94113.63
2022-11-19T13:31:23.023Z,94111.91
2022-11-19T13:33:54.782Z,94109.47
2022-11-19T13:36:26.352Z,94112.06
2022-11-19T13:38:56.581Z,94106.50
2022-11-19T13:41:27.950Z,94104.41
2022-11-19T13:44:14.282Z,94105.75
2022-11-19T13:46:44.898Z,94109.13
2022-11-19T13:49:17.806Z,94108.19
2022-11-19T13:51:47.428Z,94103.91
2022-11-19T13:54:23.211Z,94102.81
2022-11-19T13:56:52.177Z,94105.31
2022-11-19T13:59:29.464Z,94101.78
2022-11-19T14:02:06.009Z,94111.22
2022-11-19T14:04:58.054Z,94104.47
2022-11-19T14:07:34.903Z,94095.22
2022-11-19T14:10:11.991Z,94094.13
2022-11-19T14:13:02.491Z,94095.75
2022-11-19T14:15:59.013Z,94100.31
2022-11-19T14:18:50.177Z,94097.31
2022-11-19T14:22:02.757Z,94097.75
2022-11-19T14:25:15.777Z,94094.19
2022-11-19T14:27:44.159Z,94098.28
2022-11-19T14:30:14.318Z,94105.31
2022-11-19T14:32:47.186Z,94098.69
2022-11-19T14:35:23.905Z,94088.94
2022-11-19T14:37:55.432Z,94092.91
2022-11-19T14:40:25.329Z,94097.78
2022-11-19T14:43:43.851Z,94097.97
2022-11-19T14:46:27.421Z,94099.63
2022-11-19T14:49:03.544Z,94104.25
2022-11-19T14:51:35.075Z,94098.78
2022-11-19T14:54:30.050Z,94107.97
2022-11-19T14:57:05.793Z,94105.03
2022-11-19T14:59:36.934Z,94101.69
2022-11-19T15:02:14.332Z,94097.09
2022-11-19T15:04:43.831Z,94099.00
2022-11-19T15:07:13.251Z,94107.44
2022-11-19T15:10:04.204Z,94109.84
2022-11-19T15:12:47.394Z,94121.75
2022-11-19T15:15:36.075Z,94122.84
2022-11-19T15:18:13.964Z,94120.81
2022-11-19T15:20:55.460Z,94125.16
2022-11-19T15:23:28.445Z,94133.44
2022-11-19T15:26:02.122Z,94132.94
2022-11-19T15:28:39.014Z,94134.31
2022-11-19T15:31:23.787Z,94136.50
2022-11-19T15:34:56.212Z,94135.94
2022-11-19T15:37:32.771Z,94135.53
2022-11-19T15:40:01.097Z,94141.50
2022-11-19T15:42:33.082Z,94143.34
2022-11-19T15:45:04.811Z,94151.97
2022-11-19T15:47:38.047Z,94147.44
2022-11-19T15:50:06.454Z,94153.44
2022-11-19T15:52:34.153Z,94151.81
2022-11-19T15:55:12.238Z,94148.72
2022-11-19T15:57:44.570Z,94158.22
2022-11-19T16:00:17.772Z,94160.66
2022-11-19T16:02:47.329Z,94165.94
2022-11-19T16:05:21.493Z,94168.06
2022-11-19T16:07:50.308Z,94166.19
2022-11-19T16:10:24.929Z,94174.78
2022-11-19T16:13:15.796Z,94174.47
2022-11-19T16:16:08.059Z,94178.22
2022-11-19T16:18:46.712Z,94186.94
2022-11-19T16:21:15.639Z,94188.50
2022-11-19T16:24:03.341Z,94191.94
2022-11-19T16:26:31.099Z,94199.00
2022-11-19T16:29:02.281Z,94194.63
2022-11-19T16:31:30.722Z,94192.69
2022-11-19T16:33:59.179Z,94205.06
2022-11-19T16:36:29.924Z,94200.63
2022-11-19T16:38:58.428Z,94200.63
2022-11-19T16:41:43.945Z,94206.28
2022-11-19T16:44:15.295Z,94210.88
2022-11-19T16:46:43.313Z,94205.38
2022-11-19T16:49:15.068Z,94211.84
2022-11-19T16:51:52.983Z,94209.06
2022-11-19T16:54:43.761Z,94209.53
2022-11-19T16:57:12.066Z,94216.56
2022-11-19T16:59:41.652Z,94211.78
2022-11-19T17:02:15.485Z,94220.38
2022-11-19T17:04:47.404Z,94215.53
2022-11-19T17:07:15.504Z,94211.66
2022-11-19T17:09:44.711Z,94214.63
2022-11-19T17:12:27.458Z,94222.00
2022-11-19T17:15:01.353Z,94218.16
2022-11-19T17:17:40.684Z,94214.50
2022-11-19T17:20:59.830Z,94204.66
2022-11-19T17:23:29.232Z,94217.97
2022-11-19T17:25:58.895Z,94215.97
2022-11-19T17:28:29.899Z,94213.84
2022-11-19T17:30:59.870Z,94204.91
2022-11-19T17:33:27.868Z,94216.69
2022-11-19T17:35:56.589Z,94209.66
2022-11-19T17:38:27.551Z,94209.88
2022-11-19T17:40:57.689Z,94218.00
2022-11-19T17:43:44.142Z,94218.25
2022-11-19T17:46:13.212Z,94224.13
2022-11-19T17:48:42.412Z,94227.31
2022-11-19T17:51:11.963Z,94227.78
2022-11-19T17:53:40.147Z,94230.72
2022-11-19T17:56:08.588Z,94236.03
2022-11-19T17:58:36.291Z,94239.56
2022-11-19T18:01:04.140Z,94239.56
2022-11-19T18:03:33.249Z,94243.56
2022-11-19T18:06:02.389Z,94244.38
2022-11-19T18:08:30.116Z,94250.38
2022-11-19T18:10:58.132Z,94248.75
2022-11-19T18:13:27.571Z,94249.47
2022-11-19T18:15:55.422Z,94255.44
2022-11-19T18:18:23.155Z,94254.72
2022-11-19T18:20:56.440Z,94262.13
2022-11-19T18:23:26.774Z,94255.19
2022-11-19T18:25:54.858Z,94252.50
2022-11-19T18:28:22.625Z,94247.09
2022-11-19T18:30:50.363Z,94250.88
2022-11-19T18:33:18.347Z,94243.56
2022-11-19T18:35:46.084Z,94253.22
2022-11-19T18:38:15.210Z,94253.47
2022-11-19T18:40:43.104Z,94259.13
2022-11-19T18:43:40.222Z,94253.94
2022-11-19T18:46:08.043Z,94254.75
2022-11-19T18:48:35.821Z,94257.69
2022-11-19T18:51:03.601Z,94250.06
2022-11-19T18:53:32.696Z,94247.59
2022-11-19T18:56:00.480Z,94254.88
2022-11-19T18:58:28.224Z,94253.22
2022-11-19T19:00:55.970Z,94254.31
2022-11-19T19:03:23.723Z,94261.34
2022-11-19T19:05:51.472Z,94258.63
2022-11-19T19:08:19.310Z,94259.72
2022-11-19T19:10:48.413Z,94258.06
2022-11-19T19:13:15.169Z,94259.13
2022-11-19T19:15:42.881Z,94257.25
2022-11-19T19:18:11.477Z,94264.56
2022-11-19T19:20:39.111Z,94265.84
2022-11-19T19:23:06.853Z,94262.91
2022-11-19T19:25:34.544Z,94266.19
2022-11-19T19:28:03.588Z,94269.97
2022-11-19T19:30:31.263Z,94271.25
2022-11-19T19:32:58.922Z,94275.00
2022-11-19T19:35:26.600Z,94268.44
2022-11-19T19:37:54.663Z,94272.41
2022-11-19T19:40:22.346Z,94265.16
2022-11-19T19:42:49.960Z,94263.25
2022-11-19T19:45:19.056Z,94256.69
2022-11-19T19:47:46.722Z,94267.97
2022-11-19T19:50:14.478Z,94271.16
2022-11-19T19:52:42.157Z,94271.94
2022-11-19T19:55:10.420Z,94270.31
2022-11-19T19:57:38.045Z,94277.00
2022-11-19T20:00:07.043Z,94269.13
2022-11-19T20:02:36.150Z,94279.59
2022-11-19T20:05:04.052Z,94281.00
2022-11-19T20:07:31.806Z,94277.81
2022-11-19T20:09:59.583Z,94275.59
2022-11-19T20:12:48.099Z,94273.16
2022-11-19T20:15:16.025Z,94278.28
2022-11-19T20:17:45.073Z,94281.72
2022-11-19T20:20:13.429Z,94281.72
2022-11-19T20:22:41.094Z,94278.91
2022-11-19T20:25:09.229Z,94284.09
2022-11-19T20:27:36.932Z,94289.22
2022-11-19T20:30:05.840Z,94275.56
2022-11-19T20:32:33.691Z,94282.63
2022-11-19T20:35:02.680Z,94280.97
2022-11-19T20:37:30.409Z,94288.03
2022-11-19T20:39:58.194Z,94290.16
2022-11-19T20:42:43.354Z,94290.84
2022-11-19T20:45:11.254Z,94285.78
2022-11-19T20:47:39.001Z,94292.00
2022-11-19T20:50:08.555Z,94281.47
2022-11-19T20:52:36.340Z,94281.47
2022-11-19T20:55:06.818Z,94288.97
2022-11-19T20:57:34.798Z,94296.47
2022-11-19T21:00:02.564Z,94289.41
2022-11-19T21:02:30.343Z,94292.13
2022-11-19T21:04:58.225Z,94285.31
2022-11-19T21:07:27.486Z,94286.59
2022-11-19T21:09:55.188Z,94285.44
2022-11-19T21:12:22.879Z,94287.09
2022-11-19T21:14:50.557Z,94288.38
2022-11-19T21:17:18.234Z,94294.47
2022-11-19T21:19:45.909Z,94285.66
2022-11-19T21:22:13.604Z,94300.81
2022-11-19T21:24:42.720Z,94294.34
2022-11-19T21:27:10.390Z,94302.22
2022-11-19T21:29:39.099Z,94307.84
2022-11-19T21:32:08.160Z,94299.75
2022-11-19T21:34:35.922Z,94304.56
2022-11-19T21:37:03.546Z,94293.75
2022-11-19T21:39:31.266Z,94301.63
2022-11-19T21:42:00.392Z,94300.06
2022-11-19T21:44:28.143Z,94305.47
2022-11-19T21:46:55.804Z,94304.91
2022-11-19T21:49:23.777Z,94304.53
2022-11-19T21:51:51.581Z,94299.38
2022-11-19T21:54:19.266Z,94304.78
2022-11-19T21:56:47.221Z,94307.69
2022-11-19T21:59:16.324Z,94307.47
2022-11-19T22:01:44.055Z,94313.31
2022-11-19T22:04:13.545Z,94314.97
2022-11-19T22:06:42.085Z,94308.38
2022-11-19T22:09:09.772Z,94308.84
2022-11-19T22:11:37.520Z,94302.38
2022-11-19T22:14:06.387Z,94309.53
2022-11-19T22:16:37.597Z,94308.91
2022-11-19T22:19:06.206Z,94302.47
2022-11-19T22:21:34.244Z,94309.63
2022-11-19T22:24:01.904Z,94305.25
2022-11-19T22:26:29.630Z,94300.91
2022-11-19T22:28:57.530Z,94301.13
2022-11-19T22:31:26.079Z,94306.31
2022-11-19T22:33:55.574Z,94296.34
2022-11-19T22:36:24.118Z,94297.97
2022-11-19T22:38:52.170Z,94311.09
2022-11-19T22:41:21.603Z,94312.53
2022-11-19T22:43:49.847Z,94309.38
2022-11-19T22:46:18.593Z,94312.44
2022-11-19T22:48:46.244Z,94315.16
2022-11-19T22:51:16.681Z,94314.31
2022-11-19T22:53:44.667Z,94313.50
2022-11-19T22:56:13.916Z,94308.91
2022-11-19T22:58:42.271Z,94314.53
2022-11-19T23:01:16.500Z,94308.09
2022-11-19T23:03:44.281Z,94318.66
2022-11-19T23:06:11.923Z,94313.72
2022-11-19T23:08:41.116Z,94316.63
2022-11-19T23:11:09.409Z,94325.59
2022-11-19T23:13:39.063Z,94319.13
2022-11-19T23:16:09.264Z,94316.63
2022-11-19T23:18:38.607Z,94313.94
2022-11-19T23:21:08.880Z,94311.59
2022-11-19T23:23:36.809Z,94308.69
2022-11-19T23:26:07.818Z,94308.31
2022-11-19T23:28:37.058Z,94316.19
2022-11-19T23:31:06.157Z,94313.25
2022-11-19T23:33:33.837Z,94311.59
2022-11-19T23:36:05.251Z,94306.69
2022-11-19T23:38:33.014Z,94305.25
2022-11-19T23:41:01.119Z,94305.94
2022-11-19T23:43:30.405Z,94304.53
2022-11-19T23:46:04.568Z,94311.44
2022-11-19T23:48:32.633Z,94307.31
2022-11-19T23:51:02.170Z,94308.97
2022-11-19T23:53:30.110Z,94300.63
2022-11-19T23:55:57.865Z,94319.75
2022-11-19T23:58:25.698Z,94311.28
